DTTALIBD

Guest
Details From DTTA - CARTHAGE
To LIBD - Bari Palese Macchie
Flight Number -
Tags generated
Created
Modified
Stats Distance 406 nm / 752 km
Max Altitude 35,000 ft / 10,668 m
Waypoints 6
Social Downloads 0
Likes 0
Share VATSIM

Download

Looking for another format? Having issues loading an existing format? Contact us
Advertisement - Login to hide

Notes

Basic altitude profile: - Ascent Rate: 2500ft/min - Ascent Speed: 250kts - Cruise Altitude: 35000ft - Cruise Speed: 420kts - Descent Rate: 1500ft/min - Descent Speed: 250kts

Route

DTTA MEGAN UP748 POLIT LIBD

ID Type Via Altitude Latitude Longitude Leg Dist Tot Dist Heading (true) Name
O DTTA APT - 0 ft / 0 m 36.85127˚ 10.23003˚ - 0 nm - CARTHAGE
MEGAN FIX - 33,500 ft / 10,211 m 37.53778˚ 11.99722˚ 94 nm 94 nm 63° / 65° -
AMANO FIX UP748 (AWY-HI) 35,000 ft / 10,668 m 39.42167˚ 13.79667˚ 141 nm 235 nm 36° / 37° -
VARAL FIX UP748 (AWY-HI) 25,200 ft / 7,681 m 40.01417˚ 14.64139˚ 52 nm 288 nm 47° / 48° -
POLIT FIX UP748 (AWY-HI) 21,700 ft / 6,614 m 40.14667˚ 14.83333˚ 11 nm 300 nm 48° / 48° -
O LIBD APT - 0 ft / 0 m 41.13787˚ 16.75832˚ 106 nm 406 nm 55° / 56° Bari Palese Macchie

Altitude Profile

Advertisement - Login to hide

Weather


0- 5 10 15 20 25 30 35+ Temperature / ° C

Clouds and Precipitation
Forecast for 2017-12-18 12:00 UTC. Updated 2 hours ago

Ground ~20,000 ft ~40,000 ft Winds

DTTA

Details ICAO DTTA (TUN)
Name CARTHAGE
Region Tunisia
Timezone Africa/Tunis (UTC+1.0)
Stats Elevation 22 ft / 7 m (AMSL)
Location 36.851267° 10.230027°
Runways 2
Magnetic Variation 2.404° E

METAR

DTTA 181300Z 28005KT 260V320 9999 SCT023 BKN040 11/06 Q1023 NOSIG

Decode

TAF

TAF DTTA 181109Z 1812/1912 28008KT 9999 SCT023 SCT040 PROB40 TEMPO 1812/1822 4000 -TS RA FEW026CB

Decode

Departure Runways

ID Width Length Bearing (true) Bearing (mag) Surface Threshold Offset Overrun Length
01 148 ft / 45 m 10,502 ft / 3,201 m 12.29° 9.89° Asphalt 0 ft / 0 m 197 ft / 60 m
11 148 ft / 45 m 9,345 ft / 2,848 m 112.55° 110.15° Asphalt 0 ft / 0 m 643 ft / 196 m
19 148 ft / 45 m 10,502 ft / 3,201 m 192.29° 189.89° Asphalt 0 ft / 0 m 197 ft / 60 m
29 148 ft / 45 m 9,345 ft / 2,848 m 292.57° 290.17° Asphalt 657 ft / 200 m 197 ft / 60 m

LIBD

Details ICAO LIBD (BRI)
Name Bari Palese Macchie
Region Italy
Timezone Europe/Rome (UTC+1.0)
Stats Elevation 177 ft / 54 m (AMSL)
Location 41.137865° 16.758318°
Runways 1
Magnetic Variation 3.738° E

METAR

LIBD 181250Z 32010KT 320V030 9000 FC SCT020CB SCT025 07/03 Q1018

Decode

TAF

TAF LIBD 181100Z 1812/1912 31013KT 9999 SCT030 TEMPO 1812/1815 SHRA= TAF LIBP 181100Z 1812/1912 32012KT 9999 SCT030

Decode

Destination Runways

ID Width Length Bearing (true) Bearing (mag) Surface Threshold Offset Overrun Length
07 148 ft / 45 m 9,262 ft / 2,823 m 69.39° 65.65° Asphalt 1,257 ft / 383 m 0 ft / 0 m
25 148 ft / 45 m 9,262 ft / 2,823 m 249.42° 245.68° Asphalt 0 ft / 0 m 194 ft / 59 m

Approach Navaids

Runway Type Ident Frequency Range Bearing (true) Bearing (mag) Slope Elevation
07 Localiser BAP 111.35 MHz 18 nm / 33 km 69.25° 65.51° - 177 ft / 54 m (AMSL)
07 Glidescope BAP 111.35 MHz 10 nm / 19 km 69.25° 65.51° 3.32° 177 ft / 54 m (AMSL)
07 DME BAP 111.35 MHz 18 nm / 33 km - - - 183 ft / 56 m (AMSL)

Popular Alternatives